sensor_id;sensor_type;location;lat;lon;timestamp;pressure;altitude;pressure_sealevel;temperature;humidity
65718;BME280;52445;52.466;-1.016;2023-02-10T00:00:33;102154.59;;;1.51;61.42
65718;BME280;52445;52.466;-1.016;2023-02-10T00:02:59;102145.94;;;1.49;60.92
65718;BME280;52445;52.466;-1.016;2023-02-10T00:05:26;102153.41;;;1.46;60.85
65718;BME280;52445;52.466;-1.016;2023-02-10T00:07:53;102150.63;;;1.43;60.72
65718;BME280;52445;52.466;-1.016;2023-02-10T00:10:20;102150.41;;;1.40;61.52
65718;BME280;52445;52.466;-1.016;2023-02-10T00:12:46;102139.97;;;1.37;62.07
65718;BME280;52445;52.466;-1.016;2023-02-10T00:15:13;102136.56;;;1.36;61.51
65718;BME280;52445;52.466;-1.016;2023-02-10T00:17:39;102133.00;;;1.34;61.61
65718;BME280;52445;52.466;-1.016;2023-02-10T00:20:07;102127.00;;;1.34;61.92
65718;BME280;52445;52.466;-1.016;2023-02-10T00:22:34;102126.91;;;1.32;61.54
65718;BME280;52445;52.466;-1.016;2023-02-10T00:25:01;102117.56;;;1.33;61.98
65718;BME280;52445;52.466;-1.016;2023-02-10T00:27:27;102115.81;;;1.32;61.57
65718;BME280;52445;52.466;-1.016;2023-02-10T00:29:54;102126.03;;;1.32;62.02
65718;BME280;52445;52.466;-1.016;2023-02-10T00:32:20;102123.25;;;1.28;61.46
65718;BME280;52445;52.466;-1.016;2023-02-10T00:34:47;102108.50;;;1.24;61.64
65718;BME280;52445;52.466;-1.016;2023-02-10T00:37:13;102115.84;;;1.20;62.37
65718;BME280;52445;52.466;-1.016;2023-02-10T00:39:40;102119.88;;;1.16;62.78
65718;BME280;52445;52.466;-1.016;2023-02-10T00:42:07;102107.66;;;1.12;62.52
65718;BME280;52445;52.466;-1.016;2023-02-10T00:44:33;102113.53;;;1.11;62.16
65718;BME280;52445;52.466;-1.016;2023-02-10T00:47:00;102106.56;;;1.08;61.65
65718;BME280;52445;52.466;-1.016;2023-02-10T00:49:27;102108.13;;;1.06;62.64
65718;BME280;52445;52.466;-1.016;2023-02-10T00:51:53;102103.72;;;1.04;62.14
65718;BME280;52445;52.466;-1.016;2023-02-10T00:54:20;102115.25;;;0.98;62.99
65718;BME280;52445;52.466;-1.016;2023-02-10T00:56:46;102109.91;;;0.95;62.07
65718;BME280;52445;52.466;-1.016;2023-02-10T00:59:13;102117.50;;;0.94;61.97
65718;BME280;52445;52.466;-1.016;2023-02-10T01:01:41;102114.59;;;0.89;63.06
65718;BME280;52445;52.466;-1.016;2023-02-10T01:04:08;102113.59;;;0.87;62.82
65718;BME280;52445;52.466;-1.016;2023-02-10T01:06:35;102114.28;;;0.84;63.05
65718;BME280;52445;52.466;-1.016;2023-02-10T01:09:02;102114.94;;;0.82;62.35
65718;BME280;52445;52.466;-1.016;2023-02-10T01:11:29;102121.59;;;0.80;62.79
65718;BME280;52445;52.466;-1.016;2023-02-10T01:13:55;102118.63;;;0.73;63.05
65718;BME280;52445;52.466;-1.016;2023-02-10T01:16:22;102122.59;;;0.70;62.46
65718;BME280;52445;52.466;-1.016;2023-02-10T01:18:49;102118.97;;;0.66;62.92
65718;BME280;52445;52.466;-1.016;2023-02-10T01:21:19;102115.41;;;0.64;63.47
65718;BME280;52445;52.466;-1.016;2023-02-10T01:23:48;102117.75;;;0.61;63.22
65718;BME280;52445;52.466;-1.016;2023-02-10T01:26:17;102122.63;;;0.58;62.91
65718;BME280;52445;52.466;-1.016;2023-02-10T01:28:45;102126.84;;;0.57;63.66
65718;BME280;52445;52.466;-1.016;2023-02-10T01:31:17;102129.28;;;0.56;62.88
65718;BME280;52445;52.466;-1.016;2023-02-10T01:33:46;102129.94;;;0.53;63.12
65718;BME280;52445;52.466;-1.016;2023-02-10T01:36:16;102131.63;;;0.53;63.44
65718;BME280;52445;52.466;-1.016;2023-02-10T01:38:45;102132.25;;;0.50;63.11
65718;BME280;52445;52.466;-1.016;2023-02-10T01:41:15;102136.50;;;0.49;63.52
65718;BME280;52445;52.466;-1.016;2023-02-10T01:44:05;102137.06;;;0.45;63.55
65718;BME280;52445;52.466;-1.016;2023-02-10T01:46:35;102127.59;;;0.44;62.91
65718;BME280;52445;52.466;-1.016;2023-02-10T01:49:06;102133.50;;;0.43;63.90
65718;BME280;52445;52.466;-1.016;2023-02-10T01:51:38;102135.06;;;0.41;63.19
65718;BME280;52445;52.466;-1.016;2023-02-10T01:54:10;102133.25;;;0.40;63.50
65718;BME280;52445;52.466;-1.016;2023-02-10T01:56:40;102134.03;;;0.39;63.79
65718;BME280;52445;52.466;-1.016;2023-02-10T01:59:08;102139.94;;;0.38;63.37
65718;BME280;52445;52.466;-1.016;2023-02-10T02:01:35;102136.47;;;0.37;63.82
65718;BME280;52445;52.466;-1.016;2023-02-10T02:04:02;102140.69;;;0.37;63.71
65718;BME280;52445;52.466;-1.016;2023-02-10T02:06:29;102128.84;;;0.37;63.38
65718;BME280;52445;52.466;-1.016;2023-02-10T02:08:55;102135.59;;;0.37;64.30
65718;BME280;52445;52.466;-1.016;2023-02-10T02:22:45;102110.88;;;0.36;64.26
65718;BME280;52445;52.466;-1.016;2023-02-10T02:25:25;102118.53;;;0.36;64.08
65718;BME280;52445;52.466;-1.016;2023-02-10T02:33:52;102098.63;;;0.80;64.35
65718;BME280;52445;52.466;-1.016;2023-02-10T02:36:27;102085.72;;;0.53;65.48
65718;BME280;52445;52.466;-1.016;2023-02-10T02:39:01;102085.28;;;0.46;65.62
65718;BME280;52445;52.466;-1.016;2023-02-10T02:41:28;102075.63;;;0.42;65.76
65718;BME280;52445;52.466;-1.016;2023-02-10T02:43:57;102067.97;;;0.42;66.01
65718;BME280;52445;52.466;-1.016;2023-02-10T02:49:13;102058.56;;;0.41;65.92
65718;BME280;52445;52.466;-1.016;2023-02-10T02:51:57;102065.44;;;0.42;66.30
65718;BME280;52445;52.466;-1.016;2023-02-10T02:54:35;102068.09;;;0.44;66.23
65718;BME280;52445;52.466;-1.016;2023-02-10T02:57:27;102057.78;;;0.42;66.52
65718;BME280;52445;52.466;-1.016;2023-02-10T03:02:38;102082.50;;;0.43;65.98
65718;BME280;52445;52.466;-1.016;2023-02-10T03:05:08;102095.25;;;0.43;66.20
65718;BME280;52445;52.466;-1.016;2023-02-10T03:07:35;102109.75;;;0.44;65.95
65718;BME280;52445;52.466;-1.016;2023-02-10T03:10:03;102103.78;;;0.44;66.44
65718;BME280;52445;52.466;-1.016;2023-02-10T03:12:30;102077.16;;;0.40;65.91
65718;BME280;52445;52.466;-1.016;2023-02-10T03:14:57;102067.66;;;0.37;65.48
65718;BME280;52445;52.466;-1.016;2023-02-10T03:17:24;102054.56;;;0.33;65.34
65718;BME280;52445;52.466;-1.016;2023-02-10T03:19:50;102063.00;;;0.32;65.56
65718;BME280;52445;52.466;-1.016;2023-02-10T03:22:17;102063.00;;;0.32;66.12
65718;BME280;52445;52.466;-1.016;2023-02-10T03:24:43;102063.00;;;0.32;66.60
65718;BME280;52445;52.466;-1.016;2023-02-10T03:27:10;102061.47;;;0.34;66.51
65718;BME280;52445;52.466;-1.016;2023-02-10T03:29:37;102053.81;;;0.34;66.57
65718;BME280;52445;52.466;-1.016;2023-02-10T03:32:03;102049.47;;;0.33;66.22
65718;BME280;52445;52.466;-1.016;2023-02-10T03:34:31;102046.03;;;0.32;66.26
65718;BME280;52445;52.466;-1.016;2023-02-10T03:36:58;102042.59;;;0.32;66.33
65718;BME280;52445;52.466;-1.016;2023-02-10T03:39:25;102045.94;;;0.31;66.23
65718;BME280;52445;52.466;-1.016;2023-02-10T03:41:51;102038.28;;;0.31;66.15
65718;BME280;52445;52.466;-1.016;2023-02-10T03:44:20;102037.28;;;0.29;66.13
65718;BME280;52445;52.466;-1.016;2023-02-10T03:46:46;102018.44;;;0.27;66.21
65718;BME280;52445;52.466;-1.016;2023-02-10T03:49:13;102018.44;;;0.27;66.43
65718;BME280;52445;52.466;-1.016;2023-02-10T03:51:39;102015.91;;;0.27;66.74
65718;BME280;52445;52.466;-1.016;2023-02-10T03:54:06;102009.78;;;0.24;66.32
65718;BME280;52445;52.466;-1.016;2023-02-10T03:56:33;102019.25;;;0.25;67.00
65718;BME280;52445;52.466;-1.016;2023-02-10T03:59:01;102017.56;;;0.26;67.22
65718;BME280;52445;52.466;-1.016;2023-02-10T04:01:27;102026.88;;;0.25;66.72
65718;BME280;52445;52.466;-1.016;2023-02-10T04:03:54;102036.19;;;0.25;66.81
65718;BME280;52445;52.466;-1.016;2023-02-10T04:06:21;102035.28;;;0.24;66.42
65718;BME280;52445;52.466;-1.016;2023-02-10T04:08:48;102035.28;;;0.24;67.31
65718;BME280;52445;52.466;-1.016;2023-02-10T04:11:15;102035.41;;;0.26;66.52
65718;BME280;52445;52.466;-1.016;2023-02-10T04:13:41;102040.38;;;0.24;66.75
65718;BME280;52445;52.466;-1.016;2023-02-10T04:16:11;102045.47;;;0.24;66.74
65718;BME280;52445;52.466;-1.016;2023-02-10T04:18:38;102058.09;;;0.23;67.19
65718;BME280;52445;52.466;-1.016;2023-02-10T04:21:07;102046.03;;;0.20;66.68
65718;BME280;52445;52.466;-1.016;2023-02-10T04:23:34;102043.25;;;0.17;66.93
65718;BME280;52445;52.466;-1.016;2023-02-10T04:26:01;102031.97;;;0.14;66.73
65718;BME280;52445;52.466;-1.016;2023-02-10T04:28:28;102031.75;;;0.10;67.00
65718;BME280;52445;52.466;-1.016;2023-02-10T04:30:58;102034.19;;;0.09;66.66
65718;BME280;52445;52.466;-1.016;2023-02-10T04:33:25;102042.63;;;0.08;66.71
65718;BME280;52445;52.466;-1.016;2023-02-10T04:35:53;102033.94;;;0.06;66.84
65718;BME280;52445;52.466;-1.016;2023-02-10T04:38:20;102044.16;;;0.06;67.24
65718;BME280;52445;52.466;-1.016;2023-02-10T04:40:47;102052.69;;;0.06;66.71
65718;BME280;52445;52.466;-1.016;2023-02-10T04:43:14;102044.16;;;0.06;67.05
65718;BME280;52445;52.466;-1.016;2023-02-10T04:45:41;102039.84;;;0.05;67.00
65718;BME280;52445;52.466;-1.016;2023-02-10T04:48:07;102034.75;;;0.05;66.82
65718;BME280;52445;52.466;-1.016;2023-02-10T04:50:36;102033.75;;;0.03;68.03
65718;BME280;52445;52.466;-1.016;2023-02-10T04:53:03;102042.16;;;0.02;67.40
65718;BME280;52445;52.466;-1.016;2023-02-10T04:55:30;102036.19;;;0.01;67.56
65718;BME280;52445;52.466;-1.016;2023-02-10T04:57:57;102025.09;;;0.01;67.46
65718;BME280;52445;52.466;-1.016;2023-02-10T05:00:23;102028.44;;;-0.01;67.65
65718;BME280;52445;52.466;-1.016;2023-02-10T05:02:50;102026.66;;;-0.02;67.56
65718;BME280;52445;52.466;-1.016;2023-02-10T05:05:17;102033.53;;;-0.01;67.41
65718;BME280;52445;52.466;-1.016;2023-02-10T05:07:44;102028.44;;;-0.01;67.53
65718;BME280;52445;52.466;-1.016;2023-02-10T05:10:10;102014.03;;;0.00;67.56
65718;BME280;52445;52.466;-1.016;2023-02-10T05:12:37;102021.56;;;-0.02;67.24
65718;BME280;52445;52.466;-1.016;2023-02-10T05:15:04;102013.16;;;-0.01;68.19
65718;BME280;52445;52.466;-1.016;2023-02-10T05:17:30;102019.13;;;0.00;67.79
65718;BME280;52445;52.466;-1.016;2023-02-10T05:19:57;102028.44;;;-0.01;67.65
65718;BME280;52445;52.466;-1.016;2023-02-10T05:22:23;102028.44;;;-0.01;67.66
65718;BME280;52445;52.466;-1.016;2023-02-10T05:24:56;102027.53;;;-0.01;67.41
65718;BME280;52445;52.466;-1.016;2023-02-10T05:27:24;102034.19;;;-0.03;67.73
65718;BME280;52445;52.466;-1.016;2023-02-10T05:29:50;102030.75;;;-0.04;67.89
65718;BME280;52445;52.466;-1.016;2023-02-10T05:32:17;102035.06;;;-0.03;68.48
65718;BME280;52445;52.466;-1.016;2023-02-10T05:34:43;102043.50;;;-0.04;67.45
65718;BME280;52445;52.466;-1.016;2023-02-10T05:37:10;102047.69;;;-0.04;68.05
65718;BME280;52445;52.466;-1.016;2023-02-10T05:39:37;102052.78;;;-0.04;67.61
65718;BME280;52445;52.466;-1.016;2023-02-10T05:42:03;102042.59;;;-0.04;68.44
65718;BME280;52445;52.466;-1.016;2023-02-10T05:44:30;102044.38;;;-0.03;67.62
65718;BME280;52445;52.466;-1.016;2023-02-10T05:46:58;102047.81;;;-0.03;68.00
65718;BME280;52445;52.466;-1.016;2023-02-10T05:49:25;102048.81;;;-0.01;67.96
65718;BME280;52445;52.466;-1.016;2023-02-10T05:51:51;102041.41;;;0.03;68.32
65718;BME280;52445;52.466;-1.016;2023-02-10T05:54:19;102039.84;;;0.05;68.56
65718;BME280;52445;52.466;-1.016;2023-02-10T05:56:46;102041.72;;;0.07;68.26
65718;BME280;52445;52.466;-1.016;2023-02-10T05:59:13;102047.94;;;0.11;68.30
65718;BME280;52445;52.466;-1.016;2023-02-10T06:01:41;102057.34;;;0.12;68.45
65718;BME280;52445;52.466;-1.016;2023-02-10T06:04:08;102059.22;;;0.15;69.21
65718;BME280;52445;52.466;-1.016;2023-02-10T06:06:35;102061.03;;;0.16;68.61
65718;BME280;52445;52.466;-1.016;2023-02-10T06:09:03;102055.25;;;0.18;69.05
65718;BME280;52445;52.466;-1.016;2023-02-10T06:11:29;102055.44;;;0.21;68.43
65718;BME280;52445;52.466;-1.016;2023-02-10T06:13:56;102050.56;;;0.24;69.14
65718;BME280;52445;52.466;-1.016;2023-02-10T06:16:23;102048.03;;;0.24;68.86
65718;BME280;52445;52.466;-1.016;2023-02-10T06:18:50;102051.59;;;0.27;68.80
65718;BME280;52445;52.466;-1.016;2023-02-10T06:21:16;102040.59;;;0.28;68.65
65718;BME280;52445;52.466;-1.016;2023-02-10T06:23:43;102037.28;;;0.29;69.48
65718;BME280;52445;52.466;-1.016;2023-02-10T06:26:10;102044.28;;;0.31;69.01
65718;BME280;52445;52.466;-1.016;2023-02-10T06:28:37;102037.50;;;0.32;69.40
65718;BME280;52445;52.466;-1.016;2023-02-10T06:31:03;102031.72;;;0.34;69.65
65718;BME280;52445;52.466;-1.016;2023-02-10T06:33:30;102029.97;;;0.33;69.71
65718;BME280;52445;52.466;-1.016;2023-02-10T06:35:57;102020.66;;;0.34;69.35
65718;BME280;52445;52.466;-1.016;2023-02-10T06:38:23;102016.53;;;0.36;69.92
65718;BME280;52445;52.466;-1.016;2023-02-10T06:40:50;102019.31;;;0.39;70.13
65718;BME280;52445;52.466;-1.016;2023-02-10T06:43:16;102015.13;;;0.40;70.05
65718;BME280;52445;52.466;-1.016;2023-02-10T06:45:43;102021.41;;;0.45;69.64
65718;BME280;52445;52.466;-1.016;2023-02-10T06:48:10;102016.44;;;0.46;69.70
65718;BME280;52445;52.466;-1.016;2023-02-10T06:50:36;102009.69;;;0.47;69.34
65718;BME280;52445;52.466;-1.016;2023-02-10T06:53:04;102013.09;;;0.47;69.80
65718;BME280;52445;52.466;-1.016;2023-02-10T06:55:31;102016.44;;;0.46;69.20
65718;BME280;52445;52.466;-1.016;2023-02-10T06:57:59;102023.28;;;0.47;69.59
65718;BME280;52445;52.466;-1.016;2023-02-10T07:00:25;102021.53;;;0.46;69.61
65718;BME280;52445;52.466;-1.016;2023-02-10T07:02:52;102012.22;;;0.47;69.46
65718;BME280;52445;52.466;-1.016;2023-02-10T07:05:19;102022.31;;;0.45;69.80
65718;BME280;52445;52.466;-1.016;2023-02-10T07:07:46;102036.81;;;0.46;69.41
65718;BME280;52445;52.466;-1.016;2023-02-10T07:10:13;102027.41;;;0.45;69.59
65718;BME280;52445;52.466;-1.016;2023-02-10T07:12:39;102035.06;;;0.45;69.47
65718;BME280;52445;52.466;-1.016;2023-02-10T07:15:06;102034.16;;;0.45;69.57
65718;BME280;52445;52.466;-1.016;2023-02-10T07:17:33;102035.06;;;0.45;69.90
65718;BME280;52445;52.466;-1.016;2023-02-10T07:20:00;102040.16;;;0.45;69.82
65718;BME280;52445;52.466;-1.016;2023-02-10T07:22:26;102041.94;;;0.46;69.48
65718;BME280;52445;52.466;-1.016;2023-02-10T07:24:53;102044.38;;;0.45;70.14
65718;BME280;52445;52.466;-1.016;2023-02-10T07:27:19;102039.38;;;0.46;69.91
65718;BME280;52445;52.466;-1.016;2023-02-10T07:29:46;102051.34;;;0.47;69.75
65718;BME280;52445;52.466;-1.016;2023-02-10T07:32:13;102053.88;;;0.47;70.12
65718;BME280;52445;52.466;-1.016;2023-02-10T07:34:40;102065.84;;;0.48;69.74
65718;BME280;52445;52.466;-1.016;2023-02-10T07:37:07;102065.31;;;0.53;69.84
65718;BME280;52445;52.466;-1.016;2023-02-10T07:39:34;102068.06;;;0.56;69.90
65718;BME280;52445;52.466;-1.016;2023-02-10T07:42:01;102063.19;;;0.59;69.54
65718;BME280;52445;52.466;-1.016;2023-02-10T07:44:28;102049.66;;;0.60;69.54
65718;BME280;52445;52.466;-1.016;2023-02-10T07:46:55;102041.25;;;0.61;70.10
65718;BME280;52445;52.466;-1.016;2023-02-10T07:49:21;102036.16;;;0.61;70.43
65718;BME280;52445;52.466;-1.016;2023-02-10T07:51:48;102024.38;;;0.63;70.16
65718;BME280;52445;52.466;-1.016;2023-02-10T07:54:15;102021.94;;;0.64;70.60
65718;BME280;52445;52.466;-1.016;2023-02-10T07:56:41;102021.25;;;0.67;70.05
65718;BME280;52445;52.466;-1.016;2023-02-10T07:59:11;102019.72;;;0.69;70.51
65718;BME280;52445;52.466;-1.016;2023-02-10T08:01:39;102026.56;;;0.70;71.09
65718;BME280;52445;52.466;-1.016;2023-02-10T08:04:09;102023.22;;;0.71;71.63
65718;BME280;52445;52.466;-1.016;2023-02-10T08:06:36;102023.44;;;0.74;71.56
65718;BME280;52445;52.466;-1.016;2023-02-10T08:09:03;102029.22;;;0.84;70.72
65718;BME280;52445;52.466;-1.016;2023-02-10T08:11:30;102025.31;;;0.89;70.64
65718;BME280;52445;52.466;-1.016;2023-02-10T08:13:59;102028.56;;;1.00;70.14
65718;BME280;52445;52.466;-1.016;2023-02-10T08:16:26;102023.44;;;1.12;70.49
65718;BME280;52445;52.466;-1.016;2023-02-10T08:18:53;102016.59;;;1.24;70.42
65718;BME280;52445;52.466;-1.016;2023-02-10T08:21:19;102013.59;;;1.44;69.48
65718;BME280;52445;52.466;-1.016;2023-02-10T08:23:46;102025.03;;;1.62;69.05
65718;BME280;52445;52.466;-1.016;2023-02-10T08:26:13;102036.94;;;1.75;69.01
65718;BME280;52445;52.466;-1.016;2023-02-10T08:28:40;102041.88;;;1.86;68.90
65718;BME280;52445;52.466;-1.016;2023-02-10T08:31:08;102045.03;;;1.95;69.53
65718;BME280;52445;52.466;-1.016;2023-02-10T08:33:36;102060.09;;;2.04;68.94
65718;BME280;52445;52.466;-1.016;2023-02-10T08:36:14;102063.03;;;2.24;68.57
65718;BME280;52445;52.466;-1.016;2023-02-10T08:38:41;102064.47;;;2.61;68.97
65718;BME280;52445;52.466;-1.016;2023-02-10T08:41:08;102069.97;;;3.09;68.05
65718;BME280;52445;52.466;-1.016;2023-02-10T08:43:35;102070.69;;;3.50;68.30
65718;BME280;52445;52.466;-1.016;2023-02-10T08:46:03;102076.53;;;3.93;67.40
65718;BME280;52445;52.466;-1.016;2023-02-10T08:48:30;102075.94;;;4.44;67.05
65718;BME280;52445;52.466;-1.016;2023-02-10T08:50:57;102078.94;;;5.17;66.52
65718;BME280;52445;52.466;-1.016;2023-02-10T08:53:24;102068.13;;;5.74;65.22
65718;BME280;52445;52.466;-1.016;2023-02-10T08:55:57;102080.72;;;6.04;64.47
65718;BME280;52445;52.466;-1.016;2023-02-10T08:58:26;102089.41;;;6.06;64.19
65718;BME280;52445;52.466;-1.016;2023-02-10T09:00:52;102094.13;;;5.98;63.23
65718;BME280;52445;52.466;-1.016;2023-02-10T09:03:19;102096.19;;;5.87;64.16
65718;BME280;52445;52.466;-1.016;2023-02-10T09:05:47;102090.88;;;5.84;63.25
65718;BME280;52445;52.466;-1.016;2023-02-10T09:08:16;102089.72;;;5.77;62.97
65718;BME280;52445;52.466;-1.016;2023-02-10T09:10:45;102093.66;;;5.71;63.44
65718;BME280;52445;52.466;-1.016;2023-02-10T09:13:12;102095.84;;;5.98;63.43
65718;BME280;52445;52.466;-1.016;2023-02-10T09:15:40;102094.34;;;6.56;63.75
65718;BME280;52445;52.466;-1.016;2023-02-10T09:18:08;102098.50;;;7.30;63.27
65718;BME280;52445;52.466;-1.016;2023-02-10T09:20:35;102087.44;;;8.16;63.10
65718;BME280;52445;52.466;-1.016;2023-02-10T09:23:02;102084.38;;;9.18;62.39
65718;BME280;52445;52.466;-1.016;2023-02-10T09:25:30;102091.03;;;10.14;61.00
65718;BME280;52445;52.466;-1.016;2023-02-10T09:27:56;102084.78;;;10.93;58.92
65718;BME280;52445;52.466;-1.016;2023-02-10T09:30:25;102088.41;;;11.30;58.22
65718;BME280;52445;52.466;-1.016;2023-02-10T09:32:52;102094.41;;;11.29;56.75
65718;BME280;52445;52.466;-1.016;2023-02-10T09:35:19;102099.03;;;11.08;56.03
65718;BME280;52445;52.466;-1.016;2023-02-10T09:37:46;102087.94;;;10.83;55.54
65718;BME280;52445;52.466;-1.016;2023-02-10T09:40:26;102074.59;;;10.41;56.07
65718;BME280;52445;52.466;-1.016;2023-02-10T09:45:36;102079.22;;;10.22;57.06
65718;BME280;52445;52.466;-1.016;2023-02-10T09:48:18;102078.44;;;10.52;56.54
65718;BME280;52445;52.466;-1.016;2023-02-10T09:53:28;102047.22;;;9.93;55.50
65718;BME280;52445;52.466;-1.016;2023-02-10T09:55:59;102040.34;;;9.41;55.83
65718;BME280;52445;52.466;-1.016;2023-02-10T09:58:46;102043.84;;;8.93;56.62
65718;BME280;52445;52.466;-1.016;2023-02-10T10:01:27;102040.91;;;8.59;56.07
65718;BME280;52445;52.466;-1.016;2023-02-10T10:03:59;102034.28;;;8.21;57.71
65718;BME280;52445;52.466;-1.016;2023-02-10T10:06:29;102033.44;;;8.00;57.82
65718;BME280;52445;52.466;-1.016;2023-02-10T10:11:43;102042.81;;;7.55;58.57
65718;BME280;52445;52.466;-1.016;2023-02-10T10:26:07;102047.22;;;6.77;59.52
65718;BME280;52445;52.466;-1.016;2023-02-10T10:28:49;102043.94;;;6.61;59.94
65718;BME280;52445;52.466;-1.016;2023-02-10T10:31:20;102044.31;;;6.51;59.33
65718;BME280;52445;52.466;-1.016;2023-02-10T10:33:54;102034.41;;;6.40;59.54
65718;BME280;52445;52.466;-1.016;2023-02-10T10:36:31;102026.25;;;6.31;59.76
65718;BME280;52445;52.466;-1.016;2023-02-10T10:39:05;102034.63;;;6.27;59.91
65718;BME280;52445;52.466;-1.016;2023-02-10T10:41:37;102029.34;;;6.24;60.75
65718;BME280;52445;52.466;-1.016;2023-02-10T10:44:04;102027.66;;;6.24;60.61
65718;BME280;52445;52.466;-1.016;2023-02-10T10:49:07;102025.84;;;6.22;61.24
65718;BME280;52445;52.466;-1.016;2023-02-10T10:51:35;102023.91;;;6.17;61.23
65718;BME280;52445;52.466;-1.016;2023-02-10T10:54:05;102034.06;;;6.14;61.54
65718;BME280;52445;52.466;-1.016;2023-02-10T11:01:51;102033.44;;;6.38;61.37
65718;BME280;52445;52.466;-1.016;2023-02-10T11:04:22;102041.84;;;6.34;60.89
65718;BME280;52445;52.466;-1.016;2023-02-10T11:06:52;102042.00;;;6.37;61.71
65718;BME280;52445;52.466;-1.016;2023-02-10T11:14:45;102035.50;;;6.46;61.25
65718;BME280;52445;52.466;-1.016;2023-02-10T11:17:34;102033.91;;;6.48;61.48
65718;BME280;52445;52.466;-1.016;2023-02-10T11:20:33;102026.28;;;6.51;61.77
65718;BME280;52445;52.466;-1.016;2023-02-10T11:23:03;102021.22;;;6.52;60.88
65718;BME280;52445;52.466;-1.016;2023-02-10T11:25:33;102025.63;;;6.55;62.20
65718;BME280;52445;52.466;-1.016;2023-02-10T11:28:02;102019.59;;;6.54;61.47
65718;BME280;52445;52.466;-1.016;2023-02-10T11:30:33;102024.00;;;6.57;62.01
65718;BME280;52445;52.466;-1.016;2023-02-10T11:33:02;102019.69;;;6.56;62.32
65718;BME280;52445;52.466;-1.016;2023-02-10T11:35:30;102021.22;;;6.52;62.38
65718;BME280;52445;52.466;-1.016;2023-02-10T11:38:03;102018.84;;;6.57;61.26
65718;BME280;52445;52.466;-1.016;2023-02-10T11:40:49;102018.09;;;6.60;61.56
65718;BME280;52445;52.466;-1.016;2023-02-10T11:43:16;102015.00;;;6.67;62.57
65718;BME280;52445;52.466;-1.016;2023-02-10T11:45:54;102016.00;;;6.71;61.49
65718;BME280;52445;52.466;-1.016;2023-02-10T11:48:24;102026.75;;;6.80;62.25
65718;BME280;52445;52.466;-1.016;2023-02-10T11:51:13;102018.34;;;6.84;62.37
65718;BME280;52445;52.466;-1.016;2023-02-10T11:53:42;102011.06;;;6.95;61.32
65718;BME280;52445;52.466;-1.016;2023-02-10T12:01:58;102019.09;;;7.42;61.87
65718;BME280;52445;52.466;-1.016;2023-02-10T12:18:41;102018.28;;;7.43;62.36
65718;BME280;52445;52.466;-1.016;2023-02-10T12:21:36;102021.13;;;7.50;61.74
65718;BME280;52445;52.466;-1.016;2023-02-10T12:24:20;102024.91;;;7.58;61.55
65718;BME280;52445;52.466;-1.016;2023-02-10T12:27:00;102018.28;;;7.65;62.91
65718;BME280;52445;52.466;-1.016;2023-02-10T12:29:55;102021.75;;;7.65;62.50
65718;BME280;52445;52.466;-1.016;2023-02-10T12:49:01;101991.59;;;8.07;62.39
65718;BME280;52445;52.466;-1.016;2023-02-10T12:52:01;101991.09;;;8.17;61.84
65718;BME280;52445;52.466;-1.016;2023-02-10T12:54:50;101984.44;;;8.22;62.31
65718;BME280;52445;52.466;-1.016;2023-02-10T12:57:25;101972.78;;;8.34;62.28
65718;BME280;52445;52.466;-1.016;2023-02-10T13:00:05;101971.41;;;8.42;62.48
65718;BME280;52445;52.466;-1.016;2023-02-10T13:05:16;101960.78;;;8.57;62.44
65718;BME280;52445;52.466;-1.016;2023-02-10T13:07:54;101976.38;;;8.60;62.53
65718;BME280;52445;52.466;-1.016;2023-02-10T13:10:45;101973.84;;;8.62;62.13
65718;BME280;52445;52.466;-1.016;2023-02-10T13:13:20;101986.88;;;8.65;62.17
65718;BME280;52445;52.466;-1.016;2023-02-10T13:15:53;101970.75;;;8.72;61.94
65718;BME280;52445;52.466;-1.016;2023-02-10T13:18:26;101972.63;;;8.77;62.89
65718;BME280;52445;52.466;-1.016;2023-02-10T13:23:47;101968.78;;;8.90;62.78
65718;BME280;52445;52.466;-1.016;2023-02-10T13:29:40;101969.97;;;8.99;62.49
65718;BME280;52445;52.466;-1.016;2023-02-10T13:34:50;101966.69;;;9.04;62.49
65718;BME280;52445;52.466;-1.016;2023-02-10T13:39:58;101957.41;;;9.09;62.92
65718;BME280;52445;52.466;-1.016;2023-02-10T13:42:28;101959.97;;;9.09;62.39
65718;BME280;52445;52.466;-1.016;2023-02-10T13:44:57;101957.84;;;8.97;62.91
65718;BME280;52445;52.466;-1.016;2023-02-10T13:47:29;101955.53;;;9.05;63.02
65718;BME280;52445;52.466;-1.016;2023-02-10T13:53:01;101935.66;;;9.04;62.97
65718;BME280;52445;52.466;-1.016;2023-02-10T14:00:50;101924.13;;;9.20;63.08
65718;BME280;52445;52.466;-1.016;2023-02-10T14:08:42;101934.47;;;9.20;62.87
65718;BME280;52445;52.466;-1.016;2023-02-10T14:11:42;101931.69;;;9.13;63.02
65718;BME280;52445;52.466;-1.016;2023-02-10T14:17:20;101929.25;;;9.18;63.28
65718;BME280;52445;52.466;-1.016;2023-02-10T14:19:51;101923.16;;;9.16;63.81
65718;BME280;52445;52.466;-1.016;2023-02-10T14:22:35;101916.16;;;9.13;63.34
65718;BME280;52445;52.466;-1.016;2023-02-10T14:28:01;101906.50;;;9.08;63.58
65718;BME280;52445;52.466;-1.016;2023-02-10T14:30:40;101916.66;;;9.02;63.90
65718;BME280;52445;52.466;-1.016;2023-02-10T14:33:25;101913.13;;;8.99;63.65
65718;BME280;52445;52.466;-1.016;2023-02-10T14:35:55;101913.13;;;8.99;63.97
65718;BME280;52445;52.466;-1.016;2023-02-10T14:38:25;101925.19;;;8.99;63.20
65718;BME280;52445;52.466;-1.016;2023-02-10T14:40:52;101924.78;;;8.88;64.51
65718;BME280;52445;52.466;-1.016;2023-02-10T14:43:23;101928.56;;;8.96;64.07
65718;BME280;52445;52.466;-1.016;2023-02-10T14:45:51;101922.44;;;8.94;63.96
65718;BME280;52445;52.466;-1.016;2023-02-10T14:48:19;101925.84;;;8.93;63.58
65718;BME280;52445;52.466;-1.016;2023-02-10T14:50:58;101923.16;;;8.90;64.16
65718;BME280;52445;52.466;-1.016;2023-02-10T14:53:25;101921.41;;;8.89;63.84
65718;BME280;52445;52.466;-1.016;2023-02-10T14:55:54;101927.25;;;8.83;64.36
65718;BME280;52445;52.466;-1.016;2023-02-10T14:58:21;101925.47;;;8.82;63.90
65718;BME280;52445;52.466;-1.016;2023-02-10T15:01:00;101927.06;;;8.79;64.19
65718;BME280;52445;52.466;-1.016;2023-02-10T15:03:28;101917.56;;;8.78;64.29
65718;BME280;52445;52.466;-1.016;2023-02-10T15:05:56;101922.63;;;8.74;64.54
65718;BME280;52445;52.466;-1.016;2023-02-10T15:11:06;101923.78;;;9.09;64.10